Time;durP1;ratioP1;P1;durP2;ratioP2;P2;SDS_P1;SDS_P2;PMS_P1;PMS_P2;Temp;Humidity;BMP_temperature;BMP_pressure;BME280_temperature;BME280_humidity;BME280_pressure;Samples;Min_cycle;Max_cycle;Signal;HPM_P1;HPM_P2
2023/12/02 00:00:03;;;;;;;1.50;1.40;;;1.50;99.90;;;;;;5001152;28;20214;-60
2023/12/02 00:02:30;;;;;;;1.20;1.20;;;1.50;99.90;;;;;;5001962;28;20297;-59
2023/12/02 00:05:00;;;;;;;1.43;1.43;;;1.40;99.90;;;;;;5012110;28;20205;-60
2023/12/02 00:07:27;;;;;;;1.07;1.07;;;1.50;99.90;;;;;;5006437;28;20312;-60
2023/12/02 00:09:54;;;;;;;1.23;1.23;;;1.40;99.90;;;;;;4995187;28;20662;-60
2023/12/02 00:12:21;;;;;;;1.10;1.10;;;1.50;99.90;;;;;;5003648;28;20571;-60
2023/12/02 00:14:48;;;;;;;1.60;1.50;;;1.40;99.90;;;;;;5014896;28;20629;-60
2023/12/02 00:17:15;;;;;;;1.47;1.20;;;1.40;99.90;;;;;;5013584;28;20229;-60
2023/12/02 00:19:42;;;;;;;1.03;1.03;;;1.40;99.90;;;;;;5013996;28;20205;-60
2023/12/02 00:22:10;;;;;;;1.20;1.20;;;1.40;99.90;;;;;;5013962;28;20275;-60
2023/12/02 00:24:37;;;;;;;1.60;1.50;;;1.50;99.90;;;;;;5014491;28;20255;-60
2023/12/02 00:27:05;;;;;;;1.40;1.37;;;1.50;99.90;;;;;;5010421;28;20232;-60
2023/12/02 00:29:32;;;;;;;1.80;1.70;;;1.40;99.90;;;;;;5004164;28;20667;-60
2023/12/02 00:31:59;;;;;;;1.17;1.17;;;1.40;99.90;;;;;;5014741;28;20209;-60
2023/12/02 00:34:26;;;;;;;2.40;2.30;;;1.30;99.90;;;;;;5012774;28;20204;-60
2023/12/02 00:36:53;;;;;;;1.67;1.57;;;1.30;99.90;;;;;;5012022;28;20275;-60
2023/12/02 00:39:21;;;;;;;1.90;1.80;;;1.20;99.90;;;;;;5014233;28;20204;-60
2023/12/02 00:41:49;;;;;;;3.07;2.13;;;1.20;99.90;;;;;;5014123;28;20629;-60
2023/12/02 00:44:16;;;;;;;2.33;2.20;;;1.20;99.90;;;;;;5029141;28;20196;-60
2023/12/02 00:46:47;;;;;;;1.97;1.80;;;1.20;99.90;;;;;;5017897;28;20271;-60
2023/12/02 00:49:14;;;;;;;2.43;2.33;;;1.30;99.90;;;;;;5013913;28;20211;-59
2023/12/02 00:51:44;;;;;;;1.80;1.70;;;1.40;99.90;;;;;;5012632;28;20627;-60
2023/12/02 00:54:11;;;;;;;2.10;2.00;;;1.40;99.90;;;;;;5008413;28;20207;-60
2023/12/02 00:56:39;;;;;;;2.53;2.43;;;1.40;99.90;;;;;;4998941;28;20226;-60
2023/12/02 00:59:06;;;;;;;2.17;2.07;;;1.40;99.90;;;;;;5015313;28;20652;-59
2023/12/02 01:01:33;;;;;;;2.60;2.50;;;1.40;99.90;;;;;;5013723;28;20209;-60
2023/12/02 01:04:00;;;;;;;2.23;2.13;;;1.40;99.90;;;;;;5013721;28;20271;-60
2023/12/02 01:06:27;;;;;;;2.30;2.20;;;1.40;99.90;;;;;;5011675;28;20209;-60
2023/12/02 01:08:54;;;;;;;2.40;2.30;;;1.30;99.90;;;;;;5011727;28;20273;-60
2023/12/02 01:11:21;;;;;;;3.53;3.30;;;1.20;99.90;;;;;;5013287;28;20208;-60
2023/12/02 01:13:50;;;;;;;2.73;2.53;;;1.30;99.90;;;;;;5012875;28;20204;-60
2023/12/02 01:16:17;;;;;;;2.67;2.47;;;1.30;99.90;;;;;;5011679;28;20622;-60
2023/12/02 01:18:44;;;;;;;2.03;1.93;;;1.40;99.90;;;;;;5012803;28;20641;-60
2023/12/02 01:21:11;;;;;;;1.93;1.83;;;1.40;99.90;;;;;;5019784;28;20604;-60
2023/12/02 01:23:38;;;;;;;1.40;1.40;;;1.40;99.90;;;;;;5013477;28;20290;-61
2023/12/02 01:26:05;;;;;;;1.80;1.70;;;1.40;99.90;;;;;;5019382;28;20200;-60
2023/12/02 01:28:32;;;;;;;2.20;2.10;;;1.30;99.90;;;;;;5010996;28;20293;-60
2023/12/02 01:31:00;;;;;;;2.60;2.40;;;1.30;99.90;;;;;;5012752;28;20265;-59
2023/12/02 01:33:27;;;;;;;3.63;3.33;;;1.30;99.90;;;;;;5012896;28;20592;-60
2023/12/02 01:35:54;;;;;;;3.00;2.80;;;1.20;99.90;;;;;;5010899;28;20259;-60
2023/12/02 01:38:21;;;;;;;3.33;3.13;;;1.30;99.90;;;;;;5012218;28;20283;-60
2023/12/02 01:40:48;;;;;;;3.33;3.13;;;1.30;99.90;;;;;;5011494;28;20204;-60
2023/12/02 01:43:25;;;;;;;3.57;3.27;;;1.30;99.90;;;;;;5012898;28;20198;-60
2023/12/02 01:45:52;;;;;;;3.03;2.83;;;1.30;99.90;;;;;;5012931;28;20200;-60
2023/12/02 01:48:21;;;;;;;3.53;3.33;;;1.30;99.90;;;;;;5012627;28;20221;-60
2023/12/02 01:50:49;;;;;;;2.40;2.20;;;1.40;99.90;;;;;;5012575;28;20200;-60
2023/12/02 01:53:16;;;;;;;2.70;2.60;;;1.30;99.90;;;;;;5009655;28;20251;-59
2023/12/02 01:55:44;;;;;;;2.33;2.20;;;1.30;99.90;;;;;;5018126;28;20237;-60
2023/12/02 01:58:11;;;;;;;2.30;2.30;;;1.30;99.90;;;;;;5012073;28;20255;-59
2023/12/02 02:00:38;;;;;;;3.67;3.33;;;1.20;99.90;;;;;;5012527;28;20270;-60
2023/12/02 02:03:05;;;;;;;3.97;3.57;;;1.30;99.90;;;;;;5012663;28;20672;-60
2023/12/02 02:05:34;;;;;;;3.23;3.03;;;1.30;99.90;;;;;;5011456;28;20648;-59
2023/12/02 02:08:01;;;;;;;2.73;2.57;;;1.30;99.90;;;;;;5011893;28;20216;-60
2023/12/02 02:10:28;;;;;;;3.37;3.00;;;1.30;99.90;;;;;;5032267;28;20256;-60
2023/12/02 02:12:56;;;;;;;3.10;2.90;;;1.30;99.90;;;;;;5015649;28;20283;-60
2023/12/02 02:15:23;;;;;;;3.23;2.93;;;1.30;99.90;;;;;;5003188;28;20280;-60
2023/12/02 02:17:50;;;;;;;2.40;2.23;;;1.30;99.90;;;;;;5010831;28;20216;-60
2023/12/02 02:20:17;;;;;;;2.20;2.10;;;1.30;99.90;;;;;;5011923;28;20204;-59
2023/12/02 02:22:45;;;;;;;2.17;2.07;;;1.30;99.90;;;;;;5012279;28;20206;-60
2023/12/02 02:25:12;;;;;;;2.53;2.43;;;1.20;99.90;;;;;;5010539;28;20719;-60
2023/12/02 02:27:39;;;;;;;2.43;2.33;;;1.20;99.90;;;;;;5011467;28;20218;-60
2023/12/02 02:30:08;;;;;;;2.30;2.30;;;1.20;99.90;;;;;;5019841;28;20204;-60
2023/12/02 02:32:35;;;;;;;3.07;2.87;;;1.10;99.90;;;;;;5011202;28;20213;-60
2023/12/02 02:35:02;;;;;;;2.87;2.67;;;1.10;99.90;;;;;;5009462;28;20203;-60
2023/12/02 02:37:29;;;;;;;2.50;2.40;;;1.20;99.90;;;;;;5009832;28;20233;-60
2023/12/02 02:39:57;;;;;;;2.97;2.67;;;1.20;99.90;;;;;;5012002;28;20682;-60
2023/12/02 02:42:24;;;;;;;3.30;3.00;;;1.30;99.90;;;;;;5011347;28;20223;-59
2023/12/02 02:44:51;;;;;;;3.83;3.40;;;1.20;99.90;;;;;;5029447;28;20347;-59
2023/12/02 02:47:18;;;;;;;2.27;2.17;;;1.20;99.90;;;;;;5009120;28;20276;-60
2023/12/02 02:49:45;;;;;;;2.90;2.80;;;1.10;99.90;;;;;;5011520;28;20255;-60
2023/12/02 02:52:12;;;;;;;2.90;2.70;;;1.20;99.90;;;;;;5011943;28;20205;-60
2023/12/02 02:54:39;;;;;;;3.63;3.33;;;1.20;99.90;;;;;;5008001;28;20692;-60
2023/12/02 02:57:07;;;;;;;3.57;3.33;;;1.20;99.90;;;;;;5009898;28;20793;-60
2023/12/02 02:59:34;;;;;;;3.53;3.33;;;1.10;99.90;;;;;;5010074;28;20200;-60
2023/12/02 03:02:01;;;;;;;3.53;3.27;;;1.10;99.90;;;;;;5011320;28;20265;-60
2023/12/02 03:04:28;;;;;;;4.10;3.80;;;1.10;99.90;;;;;;5011918;28;20204;-60
2023/12/02 03:06:55;;;;;;;3.27;3.07;;;1.10;99.90;;;;;;5011592;28;20223;-59
2023/12/02 03:09:22;;;;;;;3.53;3.23;;;1.10;99.90;;;;;;5011570;28;20224;-60
2023/12/02 03:11:50;;;;;;;3.63;3.33;;;1.20;99.90;;;;;;5010162;28;20232;-60
2023/12/02 03:14:19;;;;;;;3.43;3.00;;;1.20;99.90;;;;;;5009656;28;20200;-60
2023/12/02 03:16:49;;;;;;;3.67;3.37;;;1.10;99.90;;;;;;5011130;28;20460;-60
2023/12/02 03:19:16;;;;;;;3.50;3.20;;;1.00;99.90;;;;;;5011652;28;20200;-60
2023/12/02 03:21:43;;;;;;;3.57;3.27;;;1.10;99.90;;;;;;5011523;28;20680;-60
2023/12/02 03:24:10;;;;;;;3.70;3.27;;;1.10;99.90;;;;;;5009848;28;20887;-60
2023/12/02 03:26:37;;;;;;;2.67;2.53;;;1.00;99.90;;;;;;5012412;28;20250;-60
2023/12/02 03:29:05;;;;;;;3.30;3.00;;;1.00;99.90;;;;;;5013820;28;20219;-60
2023/12/02 03:31:33;;;;;;;2.90;2.70;;;1.00;99.90;;;;;;5015160;28;20202;-59
2023/12/02 03:34:00;;;;;;;2.57;2.37;;;1.00;99.90;;;;;;5013568;28;20205;-60
2023/12/02 03:36:27;;;;;;;3.33;3.10;;;1.20;99.90;;;;;;5011056;28;20200;-59
2023/12/02 03:38:54;;;;;;;2.87;2.67;;;1.10;99.90;;;;;;5014571;28;20255;-59
2023/12/02 03:41:21;;;;;;;2.90;2.73;;;1.20;99.90;;;;;;5028853;28;20399;-60
2023/12/02 03:43:48;;;;;;;3.00;2.77;;;1.00;99.90;;;;;;5035115;28;20206;-60
2023/12/02 03:46:15;;;;;;;2.57;2.37;;;1.00;99.90;;;;;;5018821;28;20198;-59
2023/12/02 03:48:44;;;;;;;3.23;3.03;;;1.00;99.90;;;;;;5013407;28;20702;-59
2023/12/02 03:51:11;;;;;;;2.63;2.53;;;1.10;99.90;;;;;;5014880;28;20212;-60
2023/12/02 03:53:38;;;;;;;2.73;2.53;;;1.10;99.90;;;;;;5014971;28;20204;-59
2023/12/02 03:56:05;;;;;;;3.47;3.23;;;1.20;99.90;;;;;;5012939;28;20252;-60
2023/12/02 03:58:32;;;;;;;2.50;2.40;;;1.10;99.90;;;;;;4994858;28;20236;-60
2023/12/02 04:01:00;;;;;;;3.33;3.23;;;1.20;99.90;;;;;;5008726;28;20676;-60
2023/12/02 04:03:27;;;;;;;2.37;2.23;;;1.20;99.90;;;;;;5014486;28;20260;-59
2023/12/02 04:05:55;;;;;;;2.80;2.63;;;1.10;99.90;;;;;;5014891;28;20209;-60
2023/12/02 04:08:21;;;;;;;3.30;3.13;;;1.10;99.90;;;;;;5014653;28;20774;-60
2023/12/02 04:10:48;;;;;;;2.53;2.33;;;1.10;99.90;;;;;;5026838;28;20205;-60
2023/12/02 04:13:15;;;;;;;3.37;3.10;;;1.10;99.90;;;;;;5013313;28;20629;-59
2023/12/02 04:15:44;;;;;;;3.10;2.90;;;1.20;99.90;;;;;;5014486;28;20200;-60
2023/12/02 04:18:11;;;;;;;3.57;3.23;;;1.10;99.90;;;;;;5014124;28;20633;-59
2023/12/02 04:20:38;;;;;;;4.10;3.80;;;1.10;99.90;;;;;;5014220;28;20635;-60
2023/12/02 04:23:06;;;;;;;3.83;3.50;;;1.10;99.90;;;;;;5011146;28;20812;-60
2023/12/02 04:25:34;;;;;;;3.10;2.90;;;1.00;99.90;;;;;;5014773;28;20201;-61
2023/12/02 04:28:01;;;;;;;3.73;3.43;;;1.00;99.90;;;;;;5009162;28;20227;-60
2023/12/02 04:30:28;;;;;;;5.00;4.60;;;1.00;99.90;;;;;;5011539;28;20207;-60
2023/12/02 04:32:55;;;;;;;3.90;3.60;;;1.10;99.90;;;;;;5010623;28;20270;-60
2023/12/02 04:35:22;;;;;;;4.17;3.87;;;1.10;99.90;;;;;;5012844;28;20672;-60
2023/12/02 04:37:49;;;;;;;2.73;2.53;;;1.00;99.90;;;;;;5010477;28;20228;-60
2023/12/02 04:40:18;;;;;;;2.53;2.43;;;1.00;99.90;;;;;;5012919;28;21130;-60
2023/12/02 04:42:53;;;;;;;4.83;2.97;;;1.00;99.90;;;;;;5012377;28;20200;-60
2023/12/02 04:45:20;;;;;;;2.23;2.13;;;1.00;99.90;;;;;;5005940;28;20200;-60
2023/12/02 04:47:47;;;;;;;2.43;2.33;;;1.10;99.90;;;;;;5009882;28;20268;-60
2023/12/02 04:50:14;;;;;;;3.37;2.80;;;1.10;99.90;;;;;;5011374;28;20227;-60
2023/12/02 04:52:41;;;;;;;3.17;3.03;;;1.10;99.90;;;;;;5011947;28;20727;-60
2023/12/02 04:55:09;;;;;;;3.63;3.43;;;1.10;99.90;;;;;;5019996;28;20212;-60
2023/12/02 04:57:38;;;;;;;3.73;3.43;;;1.00;99.90;;;;;;5010911;28;20303;-60
2023/12/02 05:00:13;;;;;;;3.30;3.00;;;1.00;99.90;;;;;;5011919;28;20206;-60
2023/12/02 05:02:42;;;;;;;4.60;4.30;;;1.00;99.90;;;;;;5011659;28;20202;-60
2023/12/02 05:05:09;;;;;;;4.20;3.80;;;1.00;99.90;;;;;;5003538;28;20211;-61
2023/12/02 05:07:36;;;;;;;3.97;3.57;;;1.00;99.90;;;;;;5012853;28;20222;-60
2023/12/02 05:10:05;;;;;;;5.63;5.10;;;1.00;99.90;;;;;;5013231;28;20221;-60
2023/12/02 05:12:32;;;;;;;4.50;4.10;;;0.90;99.90;;;;;;5012812;28;20235;-60
2023/12/02 05:15:00;;;;;;;4.57;4.17;;;0.90;99.90;;;;;;5003203;28;20281;-60
2023/12/02 05:17:27;;;;;;;4.10;3.70;;;1.00;99.90;;;;;;5005495;28;20277;-60
2023/12/02 05:19:54;;;;;;;4.60;4.30;;;0.90;99.90;;;;;;5008246;28;20201;-60
2023/12/02 05:22:21;;;;;;;4.27;3.87;;;0.90;99.90;;;;;;5004974;28;20209;-60
2023/12/02 05:24:48;;;;;;;4.70;4.07;;;0.90;99.90;;;;;;5009160;28;20209;-60
2023/12/02 05:27:15;;;;;;;4.73;4.33;;;0.90;99.90;;;;;;5012672;28;20273;-60
2023/12/02 05:29:42;;;;;;;5.07;4.70;;;0.90;99.90;;;;;;5010813;28;20229;-60
2023/12/02 05:32:11;;;;;;;5.67;4.27;;;0.90;99.90;;;;;;5010991;28;20521;-60
2023/12/02 05:34:38;;;;;;;5.53;5.13;;;0.90;99.90;;;;;;5007280;28;20213;-60
2023/12/02 05:37:05;;;;;;;6.10;5.13;;;0.90;99.90;;;;;;5003115;28;20291;-60
2023/12/02 05:39:32;;;;;;;5.33;4.83;;;0.90;99.90;;;;;;5004178;28;20213;-60
2023/12/02 05:41:59;;;;;;;5.87;5.27;;;0.90;99.90;;;;;;5011839;28;20291;-60
2023/12/02 05:44:26;;;;;;;7.10;6.50;;;0.90;99.90;;;;;;5012579;28;20209;-60
2023/12/02 05:46:54;;;;;;;12.60;9.40;;;0.90;99.90;;;;;;5011372;28;20270;-60
2023/12/02 05:49:22;;;;;;;7.13;6.43;;;0.90;99.90;;;;;;5012001;28;20230;-60
2023/12/02 05:51:49;;;;;;;6.23;5.60;;;0.90;99.90;;;;;;5012147;28;20248;-60
2023/12/02 05:54:16;;;;;;;6.93;5.57;;;0.90;99.90;;;;;;5012724;28;20628;-60
2023/12/02 05:56:45;;;;;;;11.10;7.47;;;0.90;99.90;;;;;;5011833;28;20778;-60
2023/12/02 05:59:12;;;;;;;7.73;6.73;;;0.90;99.90;;;;;;5012619;28;20628;-60
2023/12/02 06:01:43;;;;;;;7.33;6.13;;;0.90;99.90;;;;;;5012205;28;20252;-60
2023/12/02 06:04:10;;;;;;;7.03;6.27;;;0.90;99.90;;;;;;5012358;28;20265;-60
2023/12/02 06:06:38;;;;;;;6.63;6.03;;;0.90;99.90;;;;;;5011626;28;20283;-60
2023/12/02 06:09:05;;;;;;;6.70;6.07;;;0.90;99.90;;;;;;5003247;28;20767;-60
2023/12/02 06:11:32;;;;;;;6.60;5.93;;;1.40;99.90;;;;;;5006719;28;20254;-60
2023/12/02 06:13:59;;;;;;;7.17;5.73;;;0.80;99.90;;;;;;5011063;28;20217;-60
2023/12/02 06:16:26;;;;;;;8.10;6.37;;;0.90;99.90;;;;;;5007792;28;20215;-60
2023/12/02 06:18:53;;;;;;;6.93;5.47;;;0.90;99.90;;;;;;5000901;28;20204;-60
2023/12/02 06:21:22;;;;;;;9.27;7.17;;;0.90;99.90;;;;;;5000143;28;20205;-60
2023/12/02 06:23:50;;;;;;;7.83;6.33;;;1.00;99.90;;;;;;5000868;28;20212;-60
2023/12/02 06:26:17;;;;;;;7.23;6.47;;;0.80;99.90;;;;;;5000128;28;20199;-60
2023/12/02 06:28:49;;;;;;;7.50;6.57;;;0.80;99.90;;;;;;5001310;28;20216;-60
2023/12/02 06:31:17;;;;;;;7.00;6.30;;;0.80;99.90;;;;;;5000237;28;20206;-60
2023/12/02 06:33:44;;;;;;;6.43;5.80;;;0.80;99.90;;;;;;5006279;28;20199;-60
2023/12/02 06:36:12;;;;;;;6.87;6.17;;;0.80;99.90;;;;;;5000465;28;20225;-60
2023/12/02 06:38:39;;;;;;;8.27;5.93;;;0.90;99.90;;;;;;5000355;28;20282;-60
2023/12/02 06:41:08;;;;;;;6.70;6.10;;;0.90;99.90;;;;;;5000226;28;20213;-60
2023/12/02 06:43:35;;;;;;;6.53;5.93;;;0.80;99.90;;;;;;5003449;28;20212;-60
2023/12/02 06:46:02;;;;;;;6.83;5.97;;;0.90;99.90;;;;;;4999082;28;20224;-60
2023/12/02 06:48:29;;;;;;;5.87;5.27;;;0.80;99.90;;;;;;4997808;28;20230;-60
2023/12/02 06:50:56;;;;;;;6.33;5.83;;;0.80;99.90;;;;;;5001957;28;20570;-60
2023/12/02 06:53:23;;;;;;;5.53;5.13;;;0.80;99.90;;;;;;5000740;28;20213;-60
2023/12/02 06:55:50;;;;;;;7.23;6.53;;;0.80;99.90;;;;;;5007770;28;20206;-60
2023/12/02 06:58:18;;;;;;;6.23;5.53;;;0.70;99.90;;;;;;5000229;28;20794;-61
2023/12/02 07:00:45;;;;;;;6.97;6.37;;;0.80;99.90;;;;;;5000788;28;20201;-60
2023/12/02 07:03:12;;;;;;;7.27;6.17;;;0.80;99.90;;;;;;5001096;28;21255;-60
2023/12/02 07:05:39;;;;;;;7.27;5.93;;;0.80;99.90;;;;;;5001261;28;20201;-59
2023/12/02 07:08:06;;;;;;;7.40;6.13;;;0.80;99.90;;;;;;4999015;28;20669;-60
2023/12/02 07:10:33;;;;;;;11.07;8.13;;;0.80;99.90;;;;;;5000249;28;20307;-60
2023/12/02 07:13:00;;;;;;;12.00;8.27;;;0.80;99.90;;;;;;5000691;28;20204;-60
2023/12/02 07:15:29;;;;;;;7.13;6.50;;;0.70;99.90;;;;;;5001390;28;20250;-60
2023/12/02 07:17:56;;;;;;;6.87;6.10;;;0.60;99.90;;;;;;4999340;28;20226;-60
2023/12/02 07:20:23;;;;;;;8.57;7.23;;;0.70;99.90;;;;;;5001648;28;21449;-60
2023/12/02 07:22:50;;;;;;;10.20;7.03;;;0.70;99.90;;;;;;5006801;28;20203;-59
2023/12/02 07:25:17;;;;;;;9.50;6.83;;;0.70;99.90;;;;;;5005000;28;20216;-60
2023/12/02 07:27:44;;;;;;;8.17;7.07;;;0.70;99.90;;;;;;5006567;28;20237;-60
2023/12/02 07:30:11;;;;;;;11.17;8.77;;;0.50;99.90;;;;;;5003373;28;20280;-59
2023/12/02 07:32:40;;;;;;;8.97;8.03;;;0.60;99.90;;;;;;5006637;28;20668;-60
2023/12/02 07:35:08;;;;;;;8.70;7.10;;;0.70;99.90;;;;;;5009163;28;20206;-60
2023/12/02 07:37:35;;;;;;;10.87;7.83;;;0.70;99.90;;;;;;5000041;28;20283;-60
2023/12/02 07:40:02;;;;;;;9.37;6.27;;;0.70;99.90;;;;;;5002410;28;20201;-60
2023/12/02 07:42:28;;;;;;;11.87;7.83;;;0.70;99.90;;;;;;5000899;28;20206;-59
2023/12/02 07:44:55;;;;;;;11.23;7.97;;;0.80;99.90;;;;;;5006819;28;20209;-60
2023/12/02 07:47:23;;;;;;;9.47;7.97;;;0.80;99.90;;;;;;5003943;28;20656;-60
2023/12/02 07:49:51;;;;;;;10.97;7.83;;;0.70;99.90;;;;;;4999477;28;20226;-59
2023/12/02 07:52:18;;;;;;;10.03;7.27;;;0.70;99.90;;;;;;4998812;28;20205;-60
2023/12/02 07:54:45;;;;;;;8.53;7.00;;;0.70;99.90;;;;;;4994849;28;20214;-59
2023/12/02 07:57:12;;;;;;;10.77;7.77;;;0.80;99.90;;;;;;4999860;28;20230;-60
2023/12/02 07:59:39;;;;;;;11.33;7.37;;;0.80;99.90;;;;;;5000239;28;20225;-60
2023/12/02 08:02:06;;;;;;;8.40;7.37;;;0.80;99.90;;;;;;4999739;28;20208;-59
2023/12/02 08:04:33;;;;;;;9.23;7.97;;;0.90;99.90;;;;;;5008397;28;20285;-60
2023/12/02 08:07:02;;;;;;;9.23;7.03;;;0.90;99.90;;;;;;5010231;28;20638;-60
2023/12/02 08:09:28;;;;;;;8.90;7.20;;;0.90;99.90;;;;;;5010877;28;20292;-59
2023/12/02 08:11:55;;;;;;;9.57;7.23;;;0.90;99.90;;;;;;5007494;28;20254;-60
2023/12/02 08:14:22;;;;;;;7.80;6.87;;;0.90;99.90;;;;;;5009381;28;20205;-60
2023/12/02 08:16:49;;;;;;;8.40;7.03;;;0.80;99.90;;;;;;5012924;28;20226;-60
2023/12/02 08:19:17;;;;;;;9.33;7.00;;;0.80;99.90;;;;;;5014108;28;20250;-60
2023/12/02 08:21:47;;;;;;;12.90;8.77;;;0.80;99.90;;;;;;5013984;28;20292;-60
2023/12/02 08:24:16;;;;;;;16.00;12.90;;;0.80;99.90;;;;;;5014396;28;20204;-60
2023/12/02 08:26:43;;;;;;;12.10;10.43;;;0.90;99.90;;;;;;5013748;28;20254;-60
2023/12/02 08:29:10;;;;;;;9.57;7.83;;;0.80;99.90;;;;;;5013770;28;20204;-60
2023/12/02 08:31:37;;;;;;;10.80;8.17;;;0.80;99.90;;;;;;5013696;28;20208;-60
2023/12/02 08:34:04;;;;;;;9.03;8.13;;;0.90;99.90;;;;;;5013273;28;20273;-60
2023/12/02 08:36:31;;;;;;;12.50;9.40;;;1.00;99.90;;;;;;5012743;28;20235;-60
2023/12/02 08:38:58;;;;;;;12.77;8.80;;;1.00;99.90;;;;;;5014343;28;20212;-60
2023/12/02 08:41:26;;;;;;;9.57;7.23;;;1.10;99.90;;;;;;5018444;28;20681;-60
2023/12/02 08:43:53;;;;;;;11.17;8.63;;;1.10;99.90;;;;;;5013860;28;20679;-60
2023/12/02 08:46:20;;;;;;;10.33;8.27;;;1.00;99.90;;;;;;5013662;28;20206;-59
2023/12/02 08:48:47;;;;;;;9.90;8.00;;;1.00;99.90;;;;;;5012225;28;20204;-59
2023/12/02 08:51:15;;;;;;;14.50;8.77;;;0.90;99.90;;;;;;5013547;28;20283;-60
2023/12/02 08:53:42;;;;;;;11.13;7.93;;;0.80;99.90;;;;;;5012764;28;20257;-60
2023/12/02 08:56:09;;;;;;;10.43;9.03;;;0.80;99.90;;;;;;5013649;28;20288;-60
2023/12/02 08:58:37;;;;;;;10.97;9.27;;;0.80;99.90;;;;;;5013252;28;20307;-60
2023/12/02 09:01:05;;;;;;;14.37;8.87;;;0.70;99.90;;;;;;5013453;28;20262;-60
2023/12/02 09:03:32;;;;;;;13.57;9.63;;;0.70;99.90;;;;;;5013356;28;20262;-60
2023/12/02 09:05:59;;;;;;;11.17;8.77;;;0.80;99.90;;;;;;5013126;28;20201;-60
2023/12/02 09:08:26;;;;;;;13.43;9.73;;;0.80;99.90;;;;;;5013138;28;20222;-60
2023/12/02 09:10:53;;;;;;;13.87;9.63;;;0.90;99.90;;;;;;5013327;28;20672;-60
2023/12/02 09:13:43;;;;;;;12.13;8.80;;;1.00;99.90;;;;;;5013383;28;20252;-60
2023/12/02 09:16:11;;;;;;;11.47;8.30;;;0.90;99.90;;;;;;5007080;28;20258;-60
2023/12/02 09:18:39;;;;;;;15.03;9.10;;;0.90;99.90;;;;;;5012952;28;20607;-60
2023/12/02 09:21:30;;;;;;;14.37;10.77;;;0.90;99.90;;;;;;5013601;28;20200;-60
2023/12/02 09:24:03;;;;;;;16.00;11.17;;;0.90;99.90;;;;;;5004739;28;20268;-60
2023/12/02 09:26:42;;;;;;;12.43;9.23;;;0.90;99.90;;;;;;5011965;28;20611;-60
2023/12/02 09:29:11;;;;;;;13.20;10.03;;;0.80;99.90;;;;;;5013237;28;20207;-60
2023/12/02 09:31:38;;;;;;;15.53;10.70;;;0.90;99.90;;;;;;5012853;28;20707;-60
2023/12/02 09:34:05;;;;;;;16.33;10.63;;;1.00;99.90;;;;;;5013596;28;20271;-60
2023/12/02 09:36:34;;;;;;;11.53;9.30;;;0.90;99.90;;;;;;5012561;28;20281;-60
2023/12/02 09:39:45;;;;;;;11.90;8.37;;;1.00;99.90;;;;;;5005992;28;20817;-60
2023/12/02 09:42:12;;;;;;;11.23;7.70;;;0.90;99.90;;;;;;4983958;28;20256;-60
2023/12/02 09:44:47;;;;;;;14.27;8.57;;;0.90;99.90;;;;;;5013272;28;20206;-60
2023/12/02 09:47:18;;;;;;;10.53;7.30;;;1.00;99.90;;;;;;5012558;28;20313;-60
2023/12/02 09:50:07;;;;;;;11.97;8.13;;;1.00;99.90;;;;;;5013609;28;20356;-60
2023/12/02 09:52:59;;;;;;;12.57;8.20;;;1.00;99.90;;;;;;5013090;28;20792;-60
2023/12/02 09:55:35;;;;;;;12.73;9.23;;;1.10;99.90;;;;;;5009157;28;20201;-61
2023/12/02 09:58:16;;;;;;;13.70;10.50;;;1.20;99.90;;;;;;5003815;28;20298;-60
2023/12/02 10:00:51;;;;;;;15.43;10.63;;;1.30;99.90;;;;;;5011918;28;20204;-60
2023/12/02 10:03:54;;;;;;;17.53;10.90;;;1.30;99.90;;;;;;5007936;28;20196;-60
2023/12/02 10:06:31;;;;;;;14.10;9.70;;;1.40;99.90;;;;;;4976071;28;20219;-60
2023/12/02 10:09:07;;;;;;;9.83;8.77;;;1.30;99.90;;;;;;5005640;28;20247;-60
2023/12/02 10:11:46;;;;;;;13.80;10.00;;;1.10;99.90;;;;;;5012924;28;20224;-60
2023/12/02 10:14:17;;;;;;;12.23;9.53;;;1.20;99.90;;;;;;5006230;28;20212;-60
2023/12/02 10:16:48;;;;;;;13.57;8.80;;;1.10;99.90;;;;;;5012094;28;20302;-60
2023/12/02 10:19:25;;;;;;;13.93;10.43;;;1.10;99.90;;;;;;5012634;28;20214;-60
2023/12/02 10:21:57;;;;;;;15.70;11.30;;;1.00;99.90;;;;;;5012346;28;20204;-60
2023/12/02 10:24:36;;;;;;;13.67;10.90;;;1.10;99.90;;;;;;5009256;28;20209;-60
2023/12/02 10:27:06;;;;;;;12.03;9.43;;;1.30;99.90;;;;;;5005224;28;20704;-60
2023/12/02 10:29:40;;;;;;;11.47;9.03;;;1.20;99.90;;;;;;5011812;28;20664;-60
2023/12/02 10:32:17;;;;;;;12.47;9.13;;;1.20;99.90;;;;;;5011597;28;20757;-60
2023/12/02 10:34:55;;;;;;;14.93;10.37;;;1.00;99.90;;;;;;5012183;28;20575;-60
2023/12/02 10:37:28;;;;;;;14.93;10.47;;;1.10;99.90;;;;;;5010955;28;20288;-60
2023/12/02 10:39:57;;;;;;;14.13;9.60;;;1.10;99.90;;;;;;5011287;28;20236;-60
2023/12/02 10:42:29;;;;;;;12.83;9.93;;;1.10;99.90;;;;;;5012377;28;20207;-60
2023/12/02 10:45:04;;;;;;;13.40;10.60;;;1.10;99.90;;;;;;5017313;28;20200;-60
2023/12/02 10:47:32;;;;;;;14.93;9.70;;;1.10;99.90;;;;;;5011715;28;20226;-60
2023/12/02 10:50:01;;;;;;;15.20;10.03;;;1.00;99.90;;;;;;5010963;28;20228;-60
2023/12/02 10:52:28;;;;;;;16.70;10.97;;;1.00;99.90;;;;;;5013830;28;20723;-60
2023/12/02 10:54:58;;;;;;;14.17;9.17;;;1.10;99.90;;;;;;5011329;28;20703;-60
2023/12/02 10:57:27;;;;;;;13.27;9.40;;;1.00;99.90;;;;;;5004496;28;20314;-60
2023/12/02 11:00:06;;;;;;;15.30;9.27;;;1.10;99.90;;;;;;5011299;28;20261;-60
2023/12/02 11:02:39;;;;;;;13.23;9.50;;;1.20;99.90;;;;;;5012100;28;20208;-60
2023/12/02 11:05:24;;;;;;;16.80;10.70;;;1.30;99.90;;;;;;5011498;28;20209;-60
2023/12/02 11:07:54;;;;;;;15.20;10.43;;;1.20;99.90;;;;;;5011049;28;20224;-60
2023/12/02 11:10:29;;;;;;;15.77;9.50;;;1.20;99.90;;;;;;5009789;28;20219;-60
2023/12/02 11:13:01;;;;;;;13.77;8.93;;;1.20;99.90;;;;;;5011359;28;20250;-60
2023/12/02 11:15:29;;;;;;;12.77;8.27;;;1.20;99.90;;;;;;5012030;28;20206;-60
2023/12/02 11:18:02;;;;;;;10.53;7.90;;;1.30;99.90;;;;;;5011801;28;20716;-60
2023/12/02 11:20:38;;;;;;;11.40;7.93;;;1.30;99.90;;;;;;5011718;28;20200;-59
2023/12/02 11:23:44;;;;;;;10.80;8.90;;;1.40;99.90;;;;;;5004329;28;20208;-60
2023/12/02 11:26:26;;;;;;;14.97;10.13;;;1.40;99.90;;;;;;5001352;28;20223;-60
2023/12/02 11:29:03;;;;;;;9.77;7.73;;;1.50;99.90;;;;;;5011569;28;20263;-60
2023/12/02 11:31:51;;;;;;;9.37;7.87;;;1.50;99.90;;;;;;5011489;28;20222;-60
2023/12/02 11:34:35;;;;;;;12.03;8.67;;;1.50;99.90;;;;;;5011866;28;20208;-60
2023/12/02 11:37:15;;;;;;;15.07;8.10;;;1.60;99.90;;;;;;5010152;28;20240;-61
2023/12/02 11:40:03;;;;;;;13.13;9.63;;;1.60;99.90;;;;;;5008976;28;20197;-60
2023/12/02 11:42:38;;;;;;;8.77;6.57;;;1.70;99.90;;;;;;5007889;28;20288;-60
2023/12/02 11:45:12;;;;;;;12.13;8.10;;;1.70;99.90;;;;;;5004709;28;20264;-60
2023/12/02 11:47:50;;;;;;;11.23;8.07;;;1.20;99.90;;;;;;5008461;28;20651;-60
2023/12/02 11:50:31;;;;;;;11.60;8.47;;;1.70;99.90;;;;;;5014117;28;20286;-60
2023/12/02 11:53:23;;;;;;;12.87;9.37;;;1.70;99.90;;;;;;5015498;28;20263;-60
2023/12/02 11:56:00;;;;;;;11.37;8.50;;;1.80;99.90;;;;;;5014382;28;20679;-60
2023/12/02 11:58:32;;;;;;;11.43;7.93;;;1.80;99.90;;;;;;5014723;28;20282;-60
2023/12/02 12:01:11;;;;;;;9.10;8.00;;;1.90;99.90;;;;;;5006733;28;20202;-60
2023/12/02 12:03:46;;;;;;;11.67;7.93;;;1.90;99.90;;;;;;5019772;28;20204;-60
2023/12/02 12:06:40;;;;;;;10.17;8.33;;;2.00;99.90;;;;;;5007146;28;20640;-60
2023/12/02 12:09:19;;;;;;;15.33;9.43;;;2.00;99.90;;;;;;5016671;28;20210;-60
2023/12/02 12:11:48;;;;;;;12.17;8.87;;;1.90;99.90;;;;;;5014470;28;20224;-60
2023/12/02 12:14:15;;;;;;;12.50;9.90;;;1.90;99.90;;;;;;5013117;28;20247;-60
2023/12/02 12:16:46;;;;;;;15.93;11.20;;;1.90;99.90;;;;;;5013829;28;20773;-60
2023/12/02 12:19:13;;;;;;;19.07;11.00;;;1.80;99.90;;;;;;5014448;28;20236;-60
2023/12/02 12:21:47;;;;;;;20.60;11.20;;;1.90;99.90;;;;;;5014241;28;20211;-60
2023/12/02 12:24:15;;;;;;;18.47;12.70;;;1.80;99.90;;;;;;5012712;28;20219;-60
2023/12/02 12:26:45;;;;;;;23.30;16.13;;;1.80;99.90;;;;;;5018763;28;20430;-60
2023/12/02 12:29:12;;;;;;;22.83;16.03;;;1.70;99.90;;;;;;5013814;28;20205;-61
2023/12/02 12:31:39;;;;;;;25.57;15.43;;;1.60;99.90;;;;;;5014124;28;20304;-60
2023/12/02 12:34:12;;;;;;;17.47;12.90;;;1.50;99.90;;;;;;5012086;28;20283;-60
2023/12/02 12:36:44;;;;;;;13.53;10.50;;;1.50;99.90;;;;;;5013094;28;20788;-60
2023/12/02 12:39:16;;;;;;;13.80;8.80;;;1.50;99.90;;;;;;5014128;28;20711;-61
2023/12/02 12:41:44;;;;;;;13.03;9.80;;;1.40;99.90;;;;;;5013192;28;20193;-60
2023/12/02 12:44:11;;;;;;;12.57;8.90;;;1.40;99.90;;;;;;5013701;28;20208;-60
2023/12/02 12:46:43;;;;;;;13.87;9.70;;;1.30;99.90;;;;;;5013669;28;20221;-60
2023/12/02 12:49:10;;;;;;;12.53;8.77;;;1.30;99.90;;;;;;5013339;28;20206;-60
2023/12/02 12:51:44;;;;;;;23.57;15.07;;;1.30;99.90;;;;;;5005944;28;20218;-60
2023/12/02 12:54:15;;;;;;;15.60;11.23;;;1.20;99.90;;;;;;5013820;28;20267;-61
2023/12/02 12:56:47;;;;;;;14.20;10.47;;;1.10;99.90;;;;;;5008779;28;20272;-60
2023/12/02 12:59:17;;;;;;;18.07;11.70;;;1.10;99.90;;;;;;5012875;28;20236;-60
2023/12/02 13:01:55;;;;;;;11.23;9.30;;;1.20;99.90;;;;;;5011742;28;20230;-60
2023/12/02 13:04:29;;;;;;;7.53;6.10;;;1.20;99.90;;;;;;5011660;28;20739;-60